Notice: A non well formed numeric value encountered in /homepages/40/d549216425/htdocs/snellvillewx/web/weather2/wsFunctions.php on line 312

Warning: A non-numeric value encountered in /homepages/40/d549216425/htdocs/snellvillewx/web/weather2/wsFunctions.php on line 312

Warning: A non-numeric value encountered in /homepages/40/d549216425/htdocs/snellvillewx/web/weather2/scriptsWL/tagsWL.php on line 168

Notice: Undefined index: moonrise in /homepages/40/d549216425/htdocs/snellvillewx/web/weather2/inc/astronomy.php on line 427

Notice: Undefined index: moonset in /homepages/40/d549216425/htdocs/snellvillewx/web/weather2/inc/astronomy.php on line 428

there are no active watches, warnings or advisories



my webcam  My webcam


visit our other weather sites:

Template documentation
and downloads

And another site




nearby metar reports


Warning: A non-numeric value encountered in /homepages/40/d549216425/htdocs/snellvillewx/web/weather2/metar/wsMetarTxt.php on line 604

Warning: A non-numeric value encountered in /homepages/40/d549216425/htdocs/snellvillewx/web/weather2/metar/wsMetarTxt.php on line 604

Warning: A non-numeric value encountered in /homepages/40/d549216425/htdocs/snellvillewx/web/weather2/metar/wsMetarTxt.php on line 604

Warning: A non-numeric value encountered in /homepages/40/d549216425/htdocs/snellvillewx/web/weather2/metar/wsMetarTxt.php on line 604

Warning: A non-numeric value encountered in /homepages/40/d549216425/htdocs/snellvillewx/web/weather2/metar/wsMetarTxt.php on line 604

Warning: A non-numeric value encountered in /homepages/40/d549216425/htdocs/snellvillewx/web/weather2/metar/wsMetarTxt.php on line 604

Warning: A non-numeric value encountered in /homepages/40/d549216425/htdocs/snellvillewx/web/weather2/metar/wsMetarTxt.php on line 604

Warning: A non-numeric value encountered in /homepages/40/d549216425/htdocs/snellvillewx/web/weather2/metar/wsMetarTxt.php on line 604
   
KAHN - Athens Airport, GA
distance from station: e 35 mi
updated: Aug 3 2020 9:51 am
few clouds  
few clouds  
   wind: varies 3.5 mph
wind: varies 3.5 mph
temperature: 84.2°F
heat index: 87.8°F
dew point: 69.8°F
humidity: 62%
barometer: 30.03 inHg
clouds: Few Clouds
visibility: 10 mi
cloud details: few clouds 11000 ft
KAHN 031351Z VRB03KT 10SM FEW110 29/21 A3003 RMK AO2 SLP159 T02890211
KBGE - Brainbridge Airport, GA
distance from station: ssw 180 mi
updated: Aug 3 2020 10:35 am
clear  
clear  
   wind: calm
wind: calm
temperature: 86°F
heat index: 95°F
dew point: 75.2°F
humidity: 70%
barometer: 29.96 inHg
clouds: Clear
visibility: 10 mi
cloud details: clear ft
KBGE 031435Z AUTO 00000KT 10SM CLR 30/24 A2996 RMK AO2 T03030238
KSSI - Brunswick Airport, GA
distance from station: se 209 mi
updated: Aug 3 2020 10:33 am
light rain, mist, overcast  
light rain, mist, overcast  
   wind: north 10.4 mph<br />Gust to 10.4 mph
wind: north 10.4 mph
Gust to 10.4 mph
temperature: 77°F
dew point: 75.2°F
humidity: 94%
barometer: 29.85 inHg
clouds: Overcast
visibility: 3 mi
cloud details: partly cloudy 1300 ft,
mostly cloudy 1800 ft,
overcast 4000 ft
KSSI 031433Z AUTO 01009G19KT 3SM -RA BR SCT013 BKN018 OVC040 25/24 A2985 RMK AO2 PK WND 02026/1405 P0012 T02500244
KCSG - Columbus Airport, GA
distance from station: sw 92 mi
updated: Aug 3 2020 9:51 am
clear  
clear  
   wind: ese 4.6 mph
wind: ese 4.6 mph
temperature: 80.6°F
heat index: 84.2°F
dew point: 73.4°F
humidity: 79%
barometer: 29.97 inHg
clouds: Clear
visibility: 10 mi
cloud details: clear ft
KCSG 031351Z 12004KT 10SM CLR 27/23 A2997 RMK AO2 SLP141 T02720233
KGVL - Gainsville Airport, GA
distance from station: n 30 mi
updated: Aug 3 2020 10:31 am
mostly cloudy  
mostly cloudy  
   wind: ene 4.6 mph
wind: ene 4.6 mph
temperature: 78.8°F
dew point: 69.8°F
humidity: 74%
barometer: 30.06 inHg
clouds: Mostly Cloudy
visibility: 10 mi
cloud details: mostly cloudy 1400 ft
KGVL 031431Z AUTO 07004KT 10SM BKN014 26/21 A3006 RMK AO2 T02610211
KRMG - Rome Airport, GA
distance from station: nw 60 mi
updated: Aug 3 2020 9:53 am
clear  
clear  
   wind: north 8.1 mph
wind: north 8.1 mph
temperature: 75.2°F
dew point: 69.8°F
humidity: 83%
barometer: 30 inHg
clouds: Clear
visibility: 10 mi
cloud details: clear ft
KRMG 031353Z AUTO 35007KT 10SM CLR 24/21 A3000 RMK AO2 SLP150 T02390211
KSAV - Savannah Airport, GA
distance from station: se 183 mi
updated: Aug 3 2020 9:53 am
overcast  
overcast  
   wind: nne 12.7 mph
wind: nne 12.7 mph
temperature: 82.4°F
heat index: 91.4°F
dew point: 77°F
humidity: 84%
barometer: 29.92 inHg
clouds: Overcast
visibility: 10 mi
cloud details: few clouds 2500 ft,
mostly cloudy 6500 ft,
mostly cloudy 8500 ft,
overcast 25000 ft
KSAV 031353Z 03011KT 10SM FEW025 BKN065 BKN085 OVC250 28/25 A2992 RMK AO2 SLP132 T02830250
KVLD - Valdosta Airport, GA
distance from station: s 185 mi
updated: Aug 3 2020 9:53 am
clear  
clear  
   wind: north 8.1 mph
wind: north 8.1 mph
temperature: 84.2°F
heat index: 91.4°F
dew point: 75.2°F
humidity: 74%
barometer: 29.94 inHg
clouds: Clear
visibility: 10 mi
cloud details: clear ft
KVLD 031353Z 01007KT 10SM CLR 29/24 A2994 RMK AO2 SLP144 T02940239
KWRB - Warner Robins Airport, GA
distance from station: sse 78 mi
updated: Aug 3 2020 9:56 am
partly cloudy  
partly cloudy  
   wind: south 4.6 mph
wind: south 4.6 mph
temperature: 82.4°F
heat index: 89.6°F
dew point: 75.2°F
humidity: 79%
barometer: 29.98 inHg
clouds: Partly Cloudy
visibility: 10 mi
cloud details: few clouds 3000 ft,
few clouds 15000 ft,
partly cloudy 25000 ft
KWRB 031356Z 18004KT 10SM FEW030 FEW150 SCT250 28/24 A2998 RMK AO2A SLP152 T02800240

script developed by  Saratoga-weather.org adapted for the template by  Weerstation Leuven

equipment we use:

weather-station
Davis VP2 weatherstation

weather-program
WeatherLink

weather-server
My Computer

provider
My provider

Davis VP2 weatherstation

WeatherLink

My Computer

My provider